Forest fire From: 18-06-2018 11:00 Until: 19-06-2018 10:14 warning for: Forest fire Level: Yellow info button
suomi:
Metsäpalovaroitus on voimassa.

svenska:
Varning för skogsbrand gäller.

english:
A forest fire warning is in force. 


Thunder radar more information blitzortung!


Löydät sääaseman tiedot myös:

European Weather Network

Finland Weather Exchange

Weather Underground

AWEKAS



Weather Underground säähistoriasivu

Päivittäin yhteenveto Marraskuu 24, 2017 Yksiköt:  Englantilaiset    Metriset   Molemmat
« Edellinen Päivä
Seuraava Päivä »
Päivittäin Viikoittain Kuukausittain Vuosittain Mukautettu
  Korkea: Matala: Keskiarvo:
Lämpötila: TemperatureC °F 2.3 °F 4 °F
Kastepiste: DewpointC °F 1.9 °F 3.3 °F
Kosteus: Humidity % 92 % 94 %
Tuulen nopeus: WindSpeedKMH mph 0.0 mph 5.1 mph
Tuulenpuuska: WindSpeedGustKMH mph - -
Tuuli:- - South
Ilmanpaine: PressurehPa in 994.8 in -
Sade: 0.0 in    
Historical Graphs
 
 
Taulukkotiedot Marraskuu 24, 2017
Aika Lämpötila Kastepiste Ilmanpaine Tuuli Tuulen nopeus Tuulenpuuska Kosteus Sademäärä (tunneittain)
TemperatureC °F DewpointC °F PressurehPa in Calm     Humidity % HourlyPrecipMM in
00:00 2.3 °F 1.9 °F 996.2 in South 8.0 mph 22.5 mph 97 % 0.0 in
00:15 2.4 °F 2.0 °F 996.2 in SSE 11.3 mph 25.7 mph 97 % 0.0 in
00:30 2.4 °F 2.0 °F 996.2 in South 9.7 mph 20.9 mph 97 % 0.0 in
01:00 2.4 °F 2.0 °F 995.5 in SSE 9.7 mph 32.2 mph 97 % 0.0 in
01:15 2.5 °F 2.1 °F 995.5 in South 9.7 mph 32.2 mph 97 % 0.0 in
01:30 2.7 °F 2.2 °F 995.5 in South 9.7 mph 27.4 mph 97 % 0.0 in
01:45 2.7 °F 2.3 °F 995.5 in SSE 8.0 mph 32.2 mph 97 % 0.0 in
02:00 2.8 °F 2.3 °F 995.1 in South 8.0 mph 22.5 mph 97 % 0.0 in
02:15 2.8 °F 2.4 °F 995.1 in South 8.0 mph 24.1 mph 97 % 0.0 in
02:30 3.0 °F 2.6 °F 995.1 in SSE 9.7 mph 24.1 mph 97 % 0.0 in
02:45 3.1 °F 2.6 °F 995.1 in South 6.4 mph 19.3 mph 97 % 0.0 in
03:00 3.2 °F 2.7 °F 994.8 in South 9.7 mph 27.4 mph 97 % 0.0 in
03:30 3.3 °F 2.9 °F 994.8 in South 8.0 mph 22.5 mph 97 % 0.0 in
03:45 3.3 °F 2.9 °F 994.8 in South 8.0 mph 20.9 mph 97 % 0.0 in
04:00 3.3 °F 2.9 °F 994.8 in South 6.4 mph 25.7 mph 97 % 0.0 in
04:30 3.6 °F 3.1 °F 995.1 in South 8.0 mph 17.7 mph 97 % 0.0 in
04:45 3.6 °F 3.2 °F 995.1 in SSW 6.4 mph 17.7 mph 97 % 0.0 in
05:00 3.7 °F 3.2 °F 995.1 in SSW 6.4 mph 16.1 mph 97 % 0.0 in
05:30 3.9 °F 3.5 °F 995.1 in SSW 8.0 mph 17.7 mph 97 % 0.0 in
05:45 3.9 °F 3.5 °F 995.1 in South 8.0 mph 14.5 mph 97 % 0.0 in
06:00 4.0 °F 3.4 °F 995.1 in South 4.8 mph 16.1 mph 96 % 0.0 in
06:15 4.1 °F 3.6 °F 995.5 in South 6.4 mph 14.5 mph 97 % 0.0 in
06:30 4.1 °F 3.6 °F 995.5 in South 6.4 mph 16.1 mph 97 % 0.0 in
06:45 4.1 °F 3.6 °F 995.5 in South 3.2 mph 11.3 mph 97 % 0.0 in
07:00 4.1 °F 3.7 °F 995.8 in South 3.2 mph 11.3 mph 97 % 0.0 in
07:15 4.2 °F 3.8 °F 995.8 in South 3.2 mph 9.7 mph 97 % 0.0 in
07:30 4.3 °F 3.9 °F 996.2 in South 1.6 mph 8.0 mph 97 % 0.0 in
07:45 4.5 °F 4.0 °F 996.5 in South 3.2 mph 14.5 mph 97 % 0.0 in
08:15 4.5 °F 4.1 °F 996.5 in SSW 1.6 mph 12.9 mph 97 % 0.0 in
08:30 4.6 °F 4.1 °F 996.5 in South 3.2 mph 11.3 mph 97 % 0.0 in
09:00 4.4 °F 4.0 °F 996.8 in SSE 3.2 mph 14.5 mph 97 % 0.0 in
09:15 4.4 °F 4.0 °F 997.2 in SSW 4.8 mph 11.3 mph 97 % 0.0 in
09:30 4.6 °F 4.1 °F 997.2 in SSW 4.8 mph 14.5 mph 97 % 0.0 in
09:45 4.7 °F 4.1 °F 997.2 in SSW 4.8 mph 17.7 mph 96 % 0.0 in
10:00 4.7 °F 4.1 °F 997.5 in South 3.2 mph 11.3 mph 96 % 0.0 in
10:15 4.6 °F 4.0 °F 997.5 in South 3.2 mph 12.9 mph 96 % 0.0 in
10:30 4.6 °F 4.0 °F 997.2 in South 1.6 mph 9.7 mph 96 % 0.0 in
10:45 4.6 °F 4.0 °F 997.2 in South 1.6 mph 8.0 mph 96 % 0.0 in
11:00 4.5 °F 3.9 °F 997.2 in SE 1.6 mph 12.9 mph 96 % 0.0 in
11:15 4.6 °F 4.0 °F 997.2 in South 3.2 mph 11.3 mph 96 % 0.0 in
11:30 4.8 °F 4.2 °F 997.2 in South 4.8 mph 17.7 mph 96 % 0.0 in
11:45 4.9 °F 4.2 °F 997.5 in SSW 6.4 mph 16.1 mph 95 % 0.0 in
12:00 5.0 °F 4.1 °F 997.2 in SSW 6.4 mph 17.7 mph 94 % 0.0 in
12:15 5.0 °F 4.1 °F 997.5 in South 6.4 mph 14.5 mph 94 % 0.0 in
12:30 4.9 °F 4.1 °F 997.5 in SSW 4.8 mph 16.1 mph 94 % 0.0 in
12:45 4.9 °F 4.2 °F 997.5 in South 6.4 mph 12.9 mph 95 % 0.0 in
13:00 4.8 °F 4.1 °F 997.9 in South 6.4 mph 20.9 mph 95 % 0.0 in
13:15 4.8 °F 4.2 °F 997.9 in SSW 6.4 mph 24.1 mph 96 % 0.0 in
13:30 4.8 °F 4.2 °F 997.9 in SSW 6.4 mph 14.5 mph 96 % 0.0 in
13:45 4.8 °F 4.2 °F 998.2 in SSW 6.4 mph 17.7 mph 96 % 0.0 in
14:00 4.9 °F 4.2 °F 998.2 in SSW 6.4 mph 14.5 mph 95 % 0.0 in
14:15 4.9 °F 4.1 °F 998.5 in South 8.0 mph 16.1 mph 94 % 0.0 in
14:30 4.9 °F 3.9 °F 998.2 in SSW 6.4 mph 16.1 mph 93 % 0.0 in
14:45 4.8 °F 3.8 °F 998.5 in SSW 6.4 mph 12.9 mph 93 % 0.0 in
15:00 4.8 °F 3.7 °F 998.9 in South 4.8 mph 12.9 mph 93 % 0.0 in
15:15 4.7 °F 3.7 °F 998.9 in SSW 6.4 mph 14.5 mph 93 % 0.0 in
15:30 4.8 °F 3.6 °F 998.9 in SSW 6.4 mph 16.1 mph 92 % 0.0 in
15:45 4.7 °F 3.5 °F 998.9 in South 6.4 mph 16.1 mph 92 % 0.0 in
16:00 4.5 °F 3.3 °F 998.9 in SSW 6.4 mph 14.5 mph 92 % 0.0 in
16:15 4.5 °F 3.3 °F 999.2 in SSW 6.4 mph 17.7 mph 92 % 0.0 in
16:30 4.5 °F 3.3 °F 999.5 in SSW 4.8 mph 16.1 mph 92 % 0.0 in
16:45 4.4 °F 3.3 °F 999.5 in SSW 8.0 mph 14.5 mph 92 % 0.0 in
17:00 4.3 °F 3.1 °F 999.5 in SSW 4.8 mph 14.5 mph 92 % 0.0 in
17:15 4.3 °F 3.1 °F 999.5 in SSW 6.4 mph 16.1 mph 92 % 0.0 in
17:30 4.2 °F 3.0 °F 999.5 in SSW 4.8 mph 12.9 mph 92 % 0.0 in
17:45 4.2 °F 3.1 °F 999.9 in SSW 3.2 mph 11.3 mph 93 % 0.0 in
18:00 4.1 °F 3.1 °F 1000.2 in South 4.8 mph 12.9 mph 93 % 0.0 in
18:15 4.1 °F 3.0 °F 1000.2 in SSW 3.2 mph 11.3 mph 93 % 0.0 in
18:30 4.0 °F 3.0 °F 999.9 in South 1.6 mph 11.3 mph 93 % 0.0 in
18:45 4.2 °F 3.1 °F 999.9 in South 4.8 mph 14.5 mph 93 % 0.0 in
19:00 4.2 °F 3.2 °F 1000.2 in South 3.2 mph 12.9 mph 93 % 0.0 in
19:15 4.2 °F 3.2 °F 999.9 in South 4.8 mph 12.9 mph 93 % 0.0 in
19:30 4.2 °F 3.2 °F 1000.2 in SSW 4.8 mph 12.9 mph 93 % 0.0 in
19:45 4.2 °F 3.1 °F 1000.2 in South 3.2 mph 14.5 mph 93 % 0.0 in
20:00 4.0 °F 3.0 °F 1000.2 in South 3.2 mph 14.5 mph 93 % 0.0 in
20:15 4.0 °F 3.0 °F 1000.6 in SSW 3.2 mph 14.5 mph 93 % 0.0 in
20:30 4.1 °F 3.0 °F 1000.6 in South 3.2 mph 14.5 mph 93 % 0.0 in
20:45 4.2 °F 3.1 °F 1000.6 in South 3.2 mph 9.7 mph 93 % 0.0 in
21:00 4.1 °F 3.1 °F 1000.6 in South 3.2 mph 17.7 mph 93 % 0.0 in
21:15 4.2 °F 3.1 °F 1000.9 in SSE 1.6 mph 9.7 mph 93 % 0.0 in
21:30 4.1 °F 3.0 °F 1000.6 in South 3.2 mph 9.7 mph 93 % 0.0 in
21:45 3.9 °F 2.9 °F 1000.9 in SSW 1.6 mph 9.7 mph 93 % 0.0 in
22:00 3.8 °F 2.7 °F 1000.6 in Calm   6.4 mph 93 % 0.0 in
22:15 3.6 °F 2.7 °F 1000.6 in SSW 1.6 mph 6.4 mph 94 % 0.0 in
22:30 3.6 °F 2.7 °F 1000.9 in SSW 3.2 mph 9.7 mph 94 % 0.0 in
22:45 3.4 °F 2.5 °F 1000.9 in Calm   6.4 mph 94 % 0.0 in
23:00 3.2 °F 2.3 °F 1000.9 in SSW 1.6 mph 9.7 mph 94 % 0.0 in
23:15 3.2 °F 2.4 °F 1000.6 in South 3.2 mph 11.3 mph 95 % 0.0 in
23:30 3.2 °F 2.5 °F 1000.6 in SSW 4.8 mph 16.1 mph 95 % 0.0 in
23:45 3.3 °F 2.5 °F 1000.6 in SSW 6.4 mph 12.9 mph 94 % 0.0 in
Esan sääasema
Terveisin Weather Underground - 2.75 mb

Alkuperäinen skripti  Jim McMurry - jmcmurry@mwt.net Sovitettu myös templatelle  Wim van der Kuil - Leuven-Template.eu

Laitteet joita käytämme:

Sääasema
Davis VP2

Sääasemaohjelma
Cumulus

Sääaseman tietokone
Asus EeePC

Palveluntarjoaja
Suncomet

Davis VP2

Cumulus

Asus EeePC

Suncomet